Terminal Aerodrome Forecast
Issued by NWS Mt. Holly, NJ

Home | Current Version | Previous Version | Text Only | Print | Product List | Glossary On
Versions: 1 2 3 4 5 6 7 8 9 10 11 12 13 14 15 16 17 18
244
FTUS41 KPHI 291131
TAFABE
TAF
KABE 291131Z 2912/3012 19004KT P6SM SCT250
     FM291800 22008KT P6SM BKN250
     FM300000 19004KT P6SM OVC200
     FM300400 20003KT P6SM -SHRA OVC070
      TEMPO 3007/3011 3SM SHRA BKN020=

USA.gov is the U.S. government's official web portal to all federal, state and local government web resources and services.